createdAt,value
2022-09-26T00:01:18.882Z,3.57
2022-09-26T00:03:48.829Z,3.97
2022-09-26T00:06:17.714Z,3.73
2022-09-26T00:08:46.282Z,4.03
2022-09-26T00:11:16.041Z,3.57
2022-09-26T00:13:43.117Z,3.23
2022-09-26T00:16:11.529Z,3.20
2022-09-26T00:18:38.792Z,3.80
2022-09-26T00:21:16.363Z,3.40
2022-09-26T00:23:43.757Z,3.90
2022-09-26T00:26:12.318Z,3.50
2022-09-26T00:28:39.080Z,3.90
2022-09-26T00:31:09.268Z,4.07
2022-09-26T00:33:36.031Z,3.50
2022-09-26T00:36:03.487Z,3.37
2022-09-26T00:38:30.273Z,3.97
2022-09-26T00:40:57.401Z,3.77
2022-09-26T00:43:31.553Z,3.67
2022-09-26T00:46:05.542Z,3.43
2022-09-26T00:48:35.144Z,2.97
2022-09-26T00:51:02.285Z,3.47
2022-09-26T00:53:35.921Z,3.60
2022-09-26T00:56:09.409Z,3.50
2022-09-26T00:58:41.545Z,7.20
2022-09-26T01:01:09.566Z,3.70
2022-09-26T01:03:38.638Z,3.37
2022-09-26T01:06:05.664Z,4.27
2022-09-26T01:08:41.017Z,3.37
2022-09-26T01:11:08.133Z,3.70
2022-09-26T01:13:36.670Z,3.43
2022-09-26T01:16:03.803Z,3.70
2022-09-26T01:18:30.835Z,3.87
2022-09-26T01:21:28.225Z,3.33
2022-09-26T01:24:22.888Z,3.23
2022-09-26T01:27:07.717Z,3.60
2022-09-26T01:30:01.462Z,3.63
2022-09-26T01:32:57.470Z,3.63
2022-09-26T01:35:36.395Z,3.90
2022-09-26T01:38:21.201Z,3.53
2022-09-26T01:40:47.873Z,3.50
2022-09-26T01:43:33.722Z,3.47
2022-09-26T01:46:23.650Z,3.60
2022-09-26T01:49:05.686Z,3.80
2022-09-26T01:52:08.538Z,3.77
2022-09-26T01:54:41.349Z,3.40
2022-09-26T01:57:14.754Z,3.80
2022-09-26T01:59:51.345Z,3.57
2022-09-26T02:02:25.544Z,3.43
2022-09-26T02:04:57.469Z,3.27
2022-09-26T02:07:38.714Z,4.13
2022-09-26T02:10:13.587Z,3.23
2022-09-26T02:12:45.372Z,4.07
2022-09-26T02:15:17.666Z,3.57
2022-09-26T02:17:48.830Z,3.80
2022-09-26T02:20:28.829Z,3.57
2022-09-26T02:22:57.380Z,4.97
2022-09-26T02:25:24.171Z,4.47
2022-09-26T02:27:51.202Z,4.40
2022-09-26T02:30:18.141Z,4.43
2022-09-26T02:32:45.135Z,3.80
2022-09-26T02:35:34.789Z,4.27
2022-09-26T02:38:01.705Z,4.40
2022-09-26T02:40:36.792Z,4.17
2022-09-26T02:43:38.625Z,4.30
2022-09-26T02:46:36.153Z,3.80
2022-09-26T02:49:08.623Z,3.70
2022-09-26T02:52:08.429Z,3.70
2022-09-26T02:54:44.249Z,3.40
2022-09-26T02:57:23.113Z,3.60
2022-09-26T03:00:16.184Z,3.57
2022-09-26T03:02:59.226Z,3.27
2022-09-26T03:05:29.489Z,3.20
2022-09-26T03:08:10.081Z,3.50
2022-09-26T03:10:37.955Z,2.60
2022-09-26T03:13:11.498Z,3.40
2022-09-26T03:15:40.648Z,3.63
2022-09-26T03:18:13.717Z,3.00
2022-09-26T03:20:41.506Z,3.00
2022-09-26T03:23:08.363Z,3.13
2022-09-26T03:25:35.231Z,2.33
2022-09-26T03:28:02.381Z,2.30
2022-09-26T03:30:29.869Z,2.47
2022-09-26T03:32:56.619Z,2.33
2022-09-26T03:35:23.625Z,2.60
2022-09-26T03:37:50.298Z,2.67
2022-09-26T03:40:17.069Z,2.40
2022-09-26T03:42:43.822Z,1.70
2022-09-26T03:45:11.293Z,2.03
2022-09-26T03:47:38.370Z,2.17
2022-09-26T03:50:09.051Z,2.73
2022-09-26T03:52:36.466Z,2.30
2022-09-26T03:55:04.051Z,2.13
2022-09-26T03:57:30.775Z,2.30
2022-09-26T03:59:57.534Z,2.63
2022-09-26T04:02:24.421Z,2.10
2022-09-26T04:04:51.264Z,1.97
2022-09-26T04:07:17.957Z,2.20
2022-09-26T04:09:44.646Z,2.00
2022-09-26T04:12:11.325Z,1.63
2022-09-26T04:14:37.993Z,1.90
2022-09-26T04:17:05.063Z,2.20
2022-09-26T04:19:31.904Z,1.57
2022-09-26T04:21:58.960Z,1.93
2022-09-26T04:24:25.772Z,1.93
2022-09-26T04:26:52.588Z,2.10
2022-09-26T04:29:19.570Z,1.97
2022-09-26T04:31:46.804Z,1.63
2022-09-26T04:34:14.837Z,1.63
2022-09-26T04:36:42.585Z,1.87
2022-09-26T04:39:09.719Z,1.80
2022-09-26T04:41:37.557Z,2.10
2022-09-26T04:44:04.283Z,1.50
2022-09-26T04:46:31.573Z,1.80
2022-09-26T04:49:00.493Z,1.57
2022-09-26T04:51:28.956Z,1.90
2022-09-26T04:53:56.027Z,2.37
2022-09-26T04:56:24.482Z,2.20
2022-09-26T04:58:51.655Z,2.30
2022-09-26T05:01:20.751Z,1.80
2022-09-26T05:03:47.791Z,1.90
2022-09-26T05:06:16.234Z,1.90
2022-09-26T05:08:47.616Z,2.20
2022-09-26T05:11:18.706Z,1.90
2022-09-26T05:13:48.066Z,1.90
2022-09-26T05:16:18.435Z,1.80
2022-09-26T05:18:49.050Z,2.90
2022-09-26T05:21:15.816Z,2.10
2022-09-26T05:24:01.262Z,2.23
2022-09-26T05:26:39.407Z,2.40
2022-09-26T05:29:08.912Z,2.17
2022-09-26T05:31:37.707Z,2.20
2022-09-26T05:34:18.372Z,1.40
2022-09-26T05:36:45.376Z,2.20
2022-09-26T05:39:30.810Z,2.10
2022-09-26T05:41:59.513Z,2.20
2022-09-26T05:44:27.447Z,2.00
2022-09-26T05:46:57.370Z,2.30
2022-09-26T05:49:25.120Z,8.97
2022-09-26T05:51:53.713Z,8.53
2022-09-26T05:54:20.487Z,11.80
2022-09-26T05:56:47.432Z,11.80
2022-09-26T05:59:14.201Z,6.97
2022-09-26T06:01:41.119Z,10.17
2022-09-26T06:04:07.823Z,10.70
2022-09-26T06:06:35.316Z,9.07
2022-09-26T06:09:03.490Z,6.97
2022-09-26T06:11:33.138Z,5.27
2022-09-26T06:14:00.868Z,9.07
2022-09-26T06:16:28.766Z,5.83
2022-09-26T06:18:55.881Z,10.60
2022-09-26T06:21:23.243Z,8.03
2022-09-26T06:23:49.992Z,6.53
2022-09-26T06:26:21.278Z,7.13
2022-09-26T06:28:51.615Z,16.30
2022-09-26T06:31:19.918Z,7.37
2022-09-26T06:33:53.469Z,6.17
2022-09-26T06:36:21.826Z,8.43
2022-09-26T06:38:48.864Z,7.93
2022-09-26T06:41:16.542Z,7.53
2022-09-26T06:43:47.633Z,14.37
2022-09-26T06:46:16.093Z,9.83
2022-09-26T06:48:43.875Z,8.07
2022-09-26T06:51:13.695Z,7.67
2022-09-26T06:53:41.046Z,9.40
2022-09-26T06:56:08.245Z,10.17
2022-09-26T06:58:35.061Z,11.73
2022-09-26T07:01:02.390Z,11.10
2022-09-26T07:03:29.638Z,8.77
2022-09-26T07:05:57.015Z,9.03
2022-09-26T07:08:43.289Z,8.00
2022-09-26T07:11:32.779Z,9.77
2022-09-26T07:14:01.935Z,10.50
2022-09-26T07:16:29.291Z,8.23
2022-09-26T07:18:56.636Z,9.17
2022-09-26T07:21:23.477Z,9.10
2022-09-26T07:23:50.197Z,9.27
2022-09-26T07:26:16.914Z,9.67
2022-09-26T07:28:44.668Z,8.83
2022-09-26T07:31:11.624Z,9.30
2022-09-26T07:33:40.202Z,9.87
2022-09-26T07:36:09.715Z,11.70
2022-09-26T07:38:36.481Z,9.10
2022-09-26T07:41:03.335Z,9.73
2022-09-26T07:44:16.909Z,9.50
2022-09-26T07:46:35.399Z,9.10
2022-09-26T07:49:20.649Z,9.90
2022-09-26T07:51:48.294Z,8.90
2022-09-26T07:54:15.114Z,11.27
2022-09-26T07:56:41.961Z,8.97
2022-09-26T07:59:08.658Z,9.47
2022-09-26T08:01:38.689Z,9.37
2022-09-26T08:04:06.384Z,9.93
2022-09-26T08:06:35.218Z,9.67
2022-09-26T08:09:02.085Z,10.33
2022-09-26T08:11:29.025Z,9.93
2022-09-26T08:13:55.749Z,10.43
2022-09-26T08:16:25.833Z,10.10
2022-09-26T08:18:54.226Z,10.93
2022-09-26T08:21:22.303Z,10.93
2022-09-26T08:23:49.306Z,10.27
2022-09-26T08:26:16.298Z,10.13
2022-09-26T08:28:43.939Z,11.10
2022-09-26T08:31:11.839Z,10.63
2022-09-26T08:33:38.941Z,10.23
2022-09-26T08:36:06.484Z,9.70
2022-09-26T08:38:33.959Z,10.90
2022-09-26T08:41:14.751Z,10.67
2022-09-26T08:43:48.478Z,11.33
2022-09-26T08:46:36.347Z,11.03
2022-09-26T08:49:24.848Z,10.70
2022-09-26T08:51:57.526Z,10.93
2022-09-26T08:54:43.522Z,10.83
2022-09-26T08:57:41.312Z,9.97
2022-09-26T09:00:21.637Z,10.53
2022-09-26T09:03:10.223Z,10.83
2022-09-26T09:05:43.626Z,11.17
2022-09-26T09:08:21.915Z,11.20
2022-09-26T09:11:01.989Z,10.57
2022-09-26T09:13:59.777Z,11.07
2022-09-26T09:16:53.269Z,12.07
2022-09-26T09:19:29.925Z,9.90
2022-09-26T09:22:11.739Z,11.60
2022-09-26T09:24:54.068Z,11.57
2022-09-26T09:30:29.806Z,11.27
2022-09-26T09:33:05.449Z,10.97
2022-09-26T09:35:46.813Z,10.00
2022-09-26T09:38:19.023Z,10.73
2022-09-26T09:40:58.826Z,10.90
2022-09-26T09:43:45.418Z,11.80
2022-09-26T09:46:35.784Z,10.80
2022-09-26T09:49:08.634Z,11.20
2022-09-26T09:52:02.429Z,11.13
2022-09-26T09:55:06.734Z,10.50
2022-09-26T09:57:45.554Z,10.37
2022-09-26T10:00:16.816Z,10.03
2022-09-26T10:03:14.591Z,10.77
2022-09-26T10:05:46.929Z,11.80
2022-09-26T10:08:18.819Z,11.53
2022-09-26T10:11:16.915Z,10.63
2022-09-26T10:13:45.108Z,9.60
2022-09-26T10:16:16.755Z,10.47
2022-09-26T10:19:08.074Z,10.27
2022-09-26T10:21:41.080Z,11.73
2022-09-26T10:24:23.988Z,10.27
2022-09-26T10:26:51.215Z,10.33
2022-09-26T10:29:34.278Z,11.57
2022-09-26T10:32:02.400Z,10.47
2022-09-26T10:34:39.024Z,10.17
2022-09-26T10:37:29.598Z,10.53
2022-09-26T10:40:17.225Z,10.20
2022-09-26T10:42:47.005Z,10.13
2022-09-26T10:45:16.042Z,10.00
2022-09-26T10:47:46.189Z,10.23
2022-09-26T10:50:20.696Z,8.80
2022-09-26T10:53:01.332Z,9.70
2022-09-26T10:55:34.811Z,8.73
2022-09-26T10:58:13.754Z,9.10
2022-09-26T11:00:50.407Z,9.33
2022-09-26T11:03:22.104Z,9.83
2022-09-26T11:05:58.193Z,9.50
2022-09-26T11:08:34.066Z,9.33
2022-09-26T11:11:11.307Z,9.20
2022-09-26T11:13:58.545Z,9.23
2022-09-26T11:16:28.481Z,8.93
2022-09-26T11:19:20.771Z,8.23
2022-09-26T11:21:58.511Z,8.50
2022-09-26T11:24:46.066Z,8.33
2022-09-26T11:27:31.438Z,8.13
2022-09-26T11:30:20.949Z,8.40
2022-09-26T11:32:50.319Z,8.80
2022-09-26T11:35:33.198Z,8.07
2022-09-26T11:38:28.977Z,8.17
2022-09-26T11:41:16.525Z,8.00
2022-09-26T11:44:21.605Z,10.47
2022-09-26T11:47:25.493Z,8.63
2022-09-26T11:50:10.672Z,8.40
2022-09-26T11:53:09.888Z,7.53
2022-09-26T11:55:56.134Z,8.37
2022-09-26T11:58:43.488Z,8.50
2022-09-26T12:01:38.176Z,8.37
2022-09-26T12:04:35.161Z,8.30
2022-09-26T12:07:39.287Z,8.60
2022-09-26T12:10:18.469Z,8.77
2022-09-26T12:12:48.012Z,9.00
2022-09-26T12:15:23.570Z,7.97
2022-09-26T12:18:06.136Z,8.93
2022-09-26T12:21:02.657Z,9.07
2022-09-26T12:23:35.620Z,8.87
2022-09-26T12:26:44.204Z,8.50
2022-09-26T12:29:31.562Z,8.10
2022-09-26T12:32:00.871Z,8.80
2022-09-26T12:35:21.561Z,8.63
2022-09-26T12:38:07.135Z,7.80
2022-09-26T12:40:56.197Z,8.33
2022-09-26T12:43:44.769Z,9.23
2022-09-26T12:46:29.711Z,8.60
2022-09-26T12:49:22.280Z,8.70
2022-09-26T12:51:55.646Z,7.87
2022-09-26T12:54:34.131Z,8.23
2022-09-26T12:57:11.828Z,8.70
2022-09-26T13:00:06.128Z,7.60
2022-09-26T13:03:07.880Z,8.67
2022-09-26T13:06:12.244Z,8.03
2022-09-26T13:08:47.958Z,8.10
2022-09-26T13:11:37.334Z,8.30
2022-09-26T13:14:14.580Z,7.53
2022-09-26T13:17:17.150Z,8.23
2022-09-26T13:19:51.655Z,8.30
2022-09-26T13:22:42.469Z,7.80
2022-09-26T13:25:18.979Z,8.37
2022-09-26T13:27:51.495Z,8.23
2022-09-26T13:30:19.347Z,8.40
2022-09-26T13:33:11.429Z,8.70
2022-09-26T13:35:43.554Z,8.20
2022-09-26T13:38:54.501Z,8.20
2022-09-26T13:41:39.198Z,8.17
2022-09-26T13:44:25.169Z,7.30
2022-09-26T13:47:13.623Z,7.50
2022-09-26T13:50:08.559Z,8.37
2022-09-26T13:52:46.782Z,6.73
2022-09-26T13:55:19.300Z,8.07
2022-09-26T13:58:04.019Z,8.00
2022-09-26T14:00:31.363Z,7.97
2022-09-26T14:03:09.387Z,6.70
2022-09-26T14:05:41.976Z,7.27
2022-09-26T14:08:47.573Z,8.30
2022-09-26T14:11:19.964Z,7.57
2022-09-26T14:13:48.032Z,8.33
2022-09-26T14:16:35.657Z,6.83
2022-09-26T14:19:13.289Z,7.40
2022-09-26T14:21:56.611Z,7.70
2022-09-26T14:24:31.645Z,7.60
2022-09-26T14:27:05.141Z,7.10
2022-09-26T14:29:42.421Z,7.40
2022-09-26T14:32:10.333Z,7.80
2022-09-26T14:35:00.334Z,7.33
2022-09-26T14:37:32.126Z,6.93
2022-09-26T14:40:07.990Z,6.90
2022-09-26T14:42:43.615Z,7.63
2022-09-26T14:45:19.398Z,7.23
2022-09-26T14:47:48.491Z,9.00
2022-09-26T14:50:20.730Z,8.00
2022-09-26T14:52:53.138Z,6.60
2022-09-26T14:55:20.091Z,7.07
2022-09-26T14:57:48.386Z,6.60
2022-09-26T15:00:44.169Z,7.00
2022-09-26T15:03:17.986Z,6.53
2022-09-26T15:05:45.471Z,7.73
2022-09-26T15:08:26.479Z,6.77
2022-09-26T15:11:00.314Z,7.07
2022-09-26T15:13:36.913Z,6.50
2022-09-26T15:16:11.518Z,6.77
2022-09-26T15:18:46.545Z,6.93
2022-09-26T15:21:22.274Z,6.40
2022-09-26T15:23:51.743Z,7.87
2022-09-26T15:26:22.919Z,7.17
2022-09-26T15:28:51.980Z,7.20
2022-09-26T15:31:43.722Z,6.90
2022-09-26T15:34:19.082Z,6.57
2022-09-26T15:36:54.953Z,6.47
2022-09-26T15:39:31.222Z,6.10
2022-09-26T15:42:49.242Z,7.10
2022-09-26T15:45:23.280Z,6.57
2022-09-26T15:47:50.118Z,6.50
2022-09-26T15:50:31.556Z,6.10
2022-09-26T15:53:04.346Z,6.40
2022-09-26T15:55:50.262Z,5.97
2022-09-26T15:58:22.983Z,6.60
2022-09-26T16:00:52.180Z,7.20
2022-09-26T16:03:41.312Z,6.33
2022-09-26T16:06:20.211Z,6.00
2022-09-26T16:08:57.682Z,6.20
2022-09-26T16:11:24.724Z,6.13
2022-09-26T16:13:52.820Z,6.23
2022-09-26T16:16:32.006Z,5.47
2022-09-26T16:19:05.254Z,6.00
2022-09-26T16:21:34.130Z,6.20
2022-09-26T16:24:26.464Z,6.17
2022-09-26T16:26:54.524Z,5.80
2022-09-26T16:29:34.653Z,5.47
2022-09-26T16:32:03.319Z,5.80
2022-09-26T16:34:31.071Z,5.53
2022-09-26T16:36:58.514Z,5.50
2022-09-26T16:39:28.499Z,6.23
2022-09-26T16:42:05.838Z,6.23
2022-09-26T16:44:49.134Z,5.90
2022-09-26T16:47:42.855Z,6.07
2022-09-26T16:50:29.890Z,5.63
2022-09-26T16:52:57.514Z,5.60
2022-09-26T16:55:25.383Z,5.93
2022-09-26T16:57:58.541Z,5.47
2022-09-26T17:00:52.404Z,5.73
2022-09-26T17:03:22.721Z,5.30
2022-09-26T17:05:51.454Z,5.30
2022-09-26T17:08:18.523Z,5.63
2022-09-26T17:10:46.422Z,4.90
2022-09-26T17:13:22.813Z,5.53
2022-09-26T17:15:54.636Z,6.10
2022-09-26T17:18:28.778Z,5.23
2022-09-26T17:20:56.889Z,4.50
2022-09-26T17:23:40.990Z,5.20
2022-09-26T17:26:18.110Z,5.27
2022-09-26T17:28:45.156Z,5.70
2022-09-26T17:31:19.460Z,4.93
2022-09-26T17:33:49.679Z,5.37
2022-09-26T17:36:25.483Z,4.90
2022-09-26T17:38:52.257Z,4.80
2022-09-26T17:41:19.018Z,5.47
2022-09-26T17:43:45.806Z,5.33
2022-09-26T17:46:15.984Z,4.73
2022-09-26T17:48:44.907Z,4.83
2022-09-26T17:51:14.360Z,4.83
2022-09-26T17:53:50.620Z,5.10
2022-09-26T17:56:19.140Z,4.60
2022-09-26T17:58:47.055Z,5.13
2022-09-26T18:01:23.991Z,4.67
2022-09-26T18:03:59.982Z,4.30
2022-09-26T18:06:31.338Z,4.57
2022-09-26T18:09:01.795Z,4.53
2022-09-26T18:11:29.257Z,4.50
2022-09-26T18:13:56.886Z,6.43
2022-09-26T18:16:24.709Z,5.83
2022-09-26T18:18:51.659Z,4.90
2022-09-26T18:21:19.856Z,4.40
2022-09-26T18:23:57.052Z,4.77
2022-09-26T18:26:31.253Z,4.87
2022-09-26T18:29:02.357Z,4.63
2022-09-26T18:31:31.327Z,4.23
2022-09-26T18:33:58.246Z,3.77
2022-09-26T18:36:26.194Z,3.70
2022-09-26T18:38:53.000Z,4.07
2022-09-26T18:41:25.515Z,4.40
2022-09-26T18:43:57.763Z,3.80
2022-09-26T18:46:24.738Z,4.80
2022-09-26T18:48:54.618Z,4.53
2022-09-26T18:51:21.405Z,3.97
2022-09-26T18:53:48.155Z,5.27
2022-09-26T18:56:33.886Z,4.17
2022-09-26T18:59:00.632Z,3.93
2022-09-26T19:01:29.196Z,3.60
2022-09-26T19:03:58.817Z,3.80
2022-09-26T19:06:34.488Z,5.10
2022-09-26T19:09:04.961Z,4.10
2022-09-26T19:11:34.446Z,4.73
2022-09-26T19:14:14.218Z,4.03
2022-09-26T19:16:42.652Z,4.23
2022-09-26T19:19:09.473Z,3.63
2022-09-26T19:21:49.797Z,3.53
2022-09-26T19:24:35.519Z,3.70
2022-09-26T19:27:22.625Z,3.70
2022-09-26T19:29:55.771Z,4.13
2022-09-26T19:32:24.521Z,4.07
2022-09-26T19:34:59.426Z,4.23
2022-09-26T19:37:26.545Z,3.90
2022-09-26T19:39:53.445Z,5.07
2022-09-26T19:42:20.139Z,4.70
2022-09-26T19:44:46.871Z,3.83
2022-09-26T19:47:17.443Z,4.70
2022-09-26T19:49:47.493Z,7.63
2022-09-26T19:52:19.897Z,4.30
2022-09-26T19:54:47.038Z,3.77
2022-09-26T19:57:19.491Z,4.30
2022-09-26T19:59:47.857Z,4.60
2022-09-26T20:02:24.453Z,4.33
2022-09-26T20:04:51.586Z,7.10
2022-09-26T20:07:19.685Z,3.40
2022-09-26T20:09:47.140Z,3.87
2022-09-26T20:12:13.938Z,6.53
2022-09-26T20:14:40.889Z,4.87
2022-09-26T20:17:25.445Z,3.53
2022-09-26T20:19:58.369Z,7.00
2022-09-26T20:22:26.027Z,3.67
2022-09-26T20:24:55.375Z,3.80
2022-09-26T20:27:25.487Z,3.57
2022-09-26T20:30:11.000Z,2.90
2022-09-26T20:32:38.132Z,3.33
2022-09-26T20:35:05.501Z,4.17
2022-09-26T20:37:36.282Z,5.80
2022-09-26T20:40:19.357Z,3.10
2022-09-26T20:42:50.256Z,3.53
2022-09-26T20:45:19.941Z,3.40
2022-09-26T20:47:46.731Z,3.87
2022-09-26T20:50:19.182Z,3.93
2022-09-26T20:52:46.031Z,3.17
2022-09-26T20:55:18.135Z,4.73
2022-09-26T20:57:45.501Z,4.00
2022-09-26T21:00:17.491Z,3.33
2022-09-26T21:02:45.540Z,3.20
2022-09-26T21:05:18.173Z,3.40
2022-09-26T21:07:45.401Z,3.40
2022-09-26T21:10:29.839Z,3.47
2022-09-26T21:12:57.358Z,4.67
2022-09-26T21:15:26.816Z,3.90
2022-09-26T21:17:54.769Z,3.17
2022-09-26T21:20:31.000Z,2.90
2022-09-26T21:23:00.023Z,5.07
2022-09-26T21:25:30.121Z,3.37
2022-09-26T21:28:00.414Z,2.63
2022-09-26T21:30:28.029Z,3.70
2022-09-26T21:32:59.607Z,3.17
2022-09-26T21:35:30.389Z,3.30
2022-09-26T21:37:58.712Z,3.00
2022-09-26T21:40:29.165Z,2.70
2022-09-26T21:43:03.644Z,3.20
2022-09-26T21:45:30.352Z,2.80
2022-09-26T21:47:57.719Z,2.97
2022-09-26T21:50:28.158Z,3.07
2022-09-26T21:53:01.325Z,2.70
2022-09-26T21:55:33.766Z,3.50
2022-09-26T21:58:05.581Z,4.00
2022-09-26T22:00:32.458Z,3.03
2022-09-26T22:03:00.092Z,3.00
2022-09-26T22:05:26.893Z,3.80
2022-09-26T22:07:53.606Z,3.20
2022-09-26T22:10:20.385Z,2.90
2022-09-26T22:12:47.074Z,3.40
2022-09-26T22:15:13.904Z,2.87
2022-09-26T22:17:40.603Z,3.83
2022-09-26T22:20:08.020Z,3.00
2022-09-26T22:22:34.892Z,2.57
2022-09-26T22:25:04.155Z,3.00
2022-09-26T22:27:33.273Z,2.00
2022-09-26T22:30:00.159Z,2.90
2022-09-26T22:32:26.935Z,2.70
2022-09-26T22:34:53.620Z,2.67
2022-09-26T22:37:20.332Z,2.50
2022-09-26T22:39:47.140Z,2.60
2022-09-26T22:42:14.091Z,5.50
2022-09-26T22:44:40.900Z,2.60
2022-09-26T22:47:07.726Z,2.97
2022-09-26T22:49:34.478Z,2.83
2022-09-26T22:52:01.300Z,4.27
2022-09-26T22:54:28.056Z,2.33
2022-09-26T22:56:55.834Z,2.43
2022-09-26T22:59:22.515Z,2.53
2022-09-26T23:01:51.750Z,2.03
2022-09-26T23:04:18.600Z,2.37
2022-09-26T23:06:45.304Z,2.63
2022-09-26T23:09:12.148Z,2.10
2022-09-26T23:11:38.820Z,2.33
2022-09-26T23:14:05.491Z,2.60
2022-09-26T23:16:32.768Z,2.00
2022-09-26T23:18:59.533Z,2.07
2022-09-26T23:21:27.666Z,2.10
2022-09-26T23:23:56.134Z,2.20
2022-09-26T23:26:26.343Z,2.10
2022-09-26T23:28:54.811Z,2.17
2022-09-26T23:31:22.116Z,2.17
2022-09-26T23:33:48.944Z,2.60
2022-09-26T23:36:16.078Z,2.27
2022-09-26T23:38:42.830Z,2.63
2022-09-26T23:41:11.430Z,1.90
2022-09-26T23:43:38.741Z,3.40
2022-09-26T23:46:05.977Z,2.50
2022-09-26T23:48:33.065Z,2.73
2022-09-26T23:51:00.150Z,2.00
2022-09-26T23:53:27.269Z,1.90
2022-09-26T23:56:01.519Z,2.60
2022-09-26T23:58:28.568Z,2.27
